This is the latest recevied weather packets stored in our database for station/object K4PAD. If no packets are shown the sender has not sent any weather packets the latest 10 day(s).
| Time | Temp. | Humidity | Pressure | Rain* | Wind** | Luminosity | Snow |
|---|---|---|---|---|---|---|---|
| 1777393553 | 27.78° C | 60% | 1022.6 hPa | 0 mm | - | 1195 W/m² | - |
| 1777393249 | 26.67° C | 63% | 1022.8 hPa | 0 mm | - | 1157 W/m² | - |
| 1777392946 | 26.67° C | 63% | 1022.8 hPa | 0 mm | - | 440 W/m² | - |
| 1777392642 | 26.67° C | 63% | 1023 hPa | 0 mm | - | 309 W/m² | - |
| 1777392338 | 27.78° C | 60% | 1022.5 hPa | 0 mm | - | 265 W/m² | - |
| 1777392038 | 27.78° C | 62% | 1022.3 hPa | 0 mm | - | 1150 W/m² | - |
| 1777391733 | 27.78° C | 60% | 1022.2 hPa | 0 mm | - | 264 W/m² | - |
| 1777391430 | 28.89° C | 58% | 1022.3 hPa | 0 mm | - | 732 W/m² | - |
| 1777391126 | 27.78° C | 61% | 1022.3 hPa | 0 mm | - | 1089 W/m² | - |
| 1777390822 | 27.78° C | 59% | 1022.3 hPa | 0 mm | - | 1089 W/m² | - |
| 1777390520 | 27.78° C | 59% | 1022.4 hPa | 0 mm | - | 1036 W/m² | - |
| 1777390216 | 27.22° C | 62% | 1022.3 hPa | 0 mm | - | 979 W/m² | - |
| 1777389912 | 27.78° C | 60% | 1022.5 hPa | 0 mm | - | 967 W/m² | - |
| 1777389609 | 27.22° C | 62% | 1022.3 hPa | 0 mm | - | 1005 W/m² | - |
| 1777389305 | 27.22° C | 62% | 1022.5 hPa | 0 mm | - | 740 W/m² | - |
| 1777389003 | 27.22° C | 59% | 1022.4 hPa | 0 mm | - | 900 W/m² | - |
| 1777388700 | 27.22° C | 60% | 1022.4 hPa | 0 mm | - | 876 W/m² | - |
| 1777388396 | 26.11° C | 64% | 1022.5 hPa | 0 mm | - | 854 W/m² | - |
| 1777388091 | 25.56° C | 68% | 1022.3 hPa | 0 mm | - | 401 W/m² | - |
| 1777387788 | 25° C | 71% | 1022.2 hPa | 0 mm | - | 250 W/m² | - |
| 1777387484 | 25.56° C | 71% | 1022.1 hPa | 0 mm | - | 556 W/m² | - |
| 1777387179 | 25.56° C | 69% | 1022.2 hPa | 0 mm | - | 965 W/m² | - |
| 1777386875 | 25° C | 73% | 1022.2 hPa | 0 mm | - | 805 W/m² | - |
| 1777386572 | 25.56° C | 70% | 1022.3 hPa | 0 mm | - | 537 W/m² | - |
| 1777386269 | 25.56° C | 70% | 1022.5 hPa | 0 mm | - | 790 W/m² | - |
* Rain latest hour (hover to see other rain measurements)
** Current wind speed in m/s (hover to see current wind gust speed)